Aviation Digital Data Service (ADDS)

Output produced by METARs form (1216 UTC 25 June 2019)
found at http://www.aviationweather.gov/metar/data/
 
Forecast for: LPMA (FUNCHAL/MADEIRA , PT)
Text: TAF LPMA 251100Z 2512/2612 36017KT 9999 SCT015 SCT030
Forecast period: 1200 to 1700 UTC 25 June 2019
Forecast type: FROM: standard forecast or significant change
Winds: from the N (360 degrees) at 20 MPH (17 knots; 8.7 m/s)
Visibility: 6 or more miles 10+ km)
Ceiling: at least 12,000 feet AGL
Clouds: scattered clouds at 1500 feet AGL
scattered clouds at 3000 feet AGL
Weather: no significant weather forecast for this period
Text: BECMG 2517/2519 33008KT
Forecast period: 1700 UTC 25 June 2019 to 1200 UTC 26 June 2019
Forecast type: BECOMING: Conditions expected to become as follows by 1900 UTC 25 June 2019
Winds: from the NNW (330 degrees) at 9 MPH (8 knots; 4.1 m/s)
Visibility: 6 or more miles 10+ km)
Ceiling: at least 12,000 feet AGL
Clouds: scattered clouds at 1500 feet AGL
scattered clouds at 3000 feet AGL
Weather: no significant weather forecast for this period
Text: TEMPO 2519/2612 VRB05KT
Forecast period: 1900 UTC 25 June 2019 to 1200 UTC 26 June 2019
Forecast type: TEMPORARY: The following changes expected for less than half the time period
Winds: variable direction winds at 6 MPH (5 knots; 2.6 m/s)
Visibility: missing
Ceiling: unknown
Clouds: missing
Weather: no significant weather forecast for this period